Latest Weather Observations for Holmes Reef

IDQ60801

Issued at 11:02 pm EST Saturday 25 May 2019 (issued every 10 minutes, with the page automatically refreshed every 10 minutes)

About weather observations | Map of weather stations | Latest weather observations for QLD | Other Formats
Station Details ID: 200732 Name: HOLMES REEF Lat: -16.47 Lon: 147.87 Height: 1.9 m
Data from the previous 72 hours. | See also: Recent months at Holmes Reef
Date/Time
EST
Temp
°C
App
Temp
°C
Dew
Point
°C
Rel
Hum
%
Delta-T
°C
Wind Press
QNH
hPa
Press
MSL
hPa
Rain since
9am
mm
Dir  Spd
km/h
Gust
km/h
Spd
kts
Gust
kts
25/11:00pm 25.3 - - - - E 28 33 15 18 1015.3 1015.2 -
25/10:30pm 25.5 - - - - E 26 32 14 17 1015.4 1015.3 -
25/10:00pm 25.6 - - - - E 30 33 16 18 1015.5 1015.4 -
25/09:30pm 25.5 - - - - ESE 30 33 16 18 1015.6 1015.5 -
25/09:00pm 25.6 - - - - ESE 30 33 16 18 1015.7 1015.6 -
25/08:30pm 25.6 - - - - ESE 33 37 18 20 1015.7 1015.6 -
25/08:00pm 25.9 - - - - ESE 32 35 17 19 1015.6 1015.5 -
25/07:30pm 25.7 - - - - ESE 32 35 17 19 1015.3 1015.2 -
25/07:00pm 25.6 - - - - ESE 32 35 17 19 1014.8 1014.7 -
25/06:30pm 25.7 - - - - ESE 32 39 17 21 1014.7 1014.6 -
25/06:00pm 25.6 - - - - ESE 30 33 16 18 1014.2 1014.1 -
25/05:30pm 25.7 - - - - ESE 28 33 15 18 1014.0 1013.9 -
25/05:00pm 25.3 - - - - E 26 30 14 16 1013.7 1013.6 -
25/04:30pm 25.8 - - - - ESE 26 30 14 16 1013.3 1013.2 -
25/04:00pm 25.7 - - - - E 24 32 13 17 1013.1 1013.0 -
25/03:30pm 25.9 - - - - ESE 24 28 13 15 1013.0 1012.9 -
25/03:00pm 25.7 - - - - ESE 26 32 14 17 1013.0 1012.9 -
25/02:30pm 25.8 - - - - ESE 28 33 15 18 1013.1 1013.0 -
25/02:00pm 25.7 - - - - ESE 24 30 13 16 1013.3 1013.2 -
25/01:30pm 25.8 - - - - ESE 24 28 13 15 1013.6 1013.5 -
25/01:00pm 25.7 - - - - ESE 28 32 15 17 1014.0 1013.9 -
25/12:30pm 25.9 - - - - ESE 26 30 14 16 1014.5 1014.4 -
25/12:00pm 25.8 - - - - SE 30 33 16 18 1014.9 1014.8 -
25/11:30am 26.0 - - - - ESE 28 30 15 16 1015.5 1015.4 -
25/11:00am 25.7 - - - - SE 28 33 15 18 1015.6 1015.5 -
25/10:30am 25.8 - - - - ESE 26 30 14 16 1016.1 1016.0 -
25/10:00am 25.7 - - - - ESE 28 32 15 17 1016.2 1016.1 -
25/09:30am 25.6 - - - - ESE 35 41 19 22 1016.0 1015.9 -
25/09:00am 25.8 - - - - ESE 33 37 18 20 1015.9 1015.8 -
25/08:30am 25.7 - - - - ESE 30 33 16 18 1016.1 1016.0 -
25/08:00am 25.6 - - - - ESE 30 35 16 19 1016.1 1016.0 -
25/07:30am 25.6 - - - - ESE 30 32 16 17 1016.0 1015.9 -
25/07:00am 25.4 - - - - ESE 30 33 16 18 1015.7 1015.6 -
25/06:30am 25.2 - - - - ESE 30 33 16 18 1015.3 1015.2 -
25/06:00am 25.4 - - - - ESE 30 32 16 17 1015.0 1014.9 -
25/05:30am 25.4 - - - - ESE 28 33 15 18 1014.9 1014.8 -
25/05:00am 25.3 - - - - E 32 37 17 20 1014.8 1014.7 -
25/04:30am 25.0 - - - - E 32 37 17 20 1014.6 1014.5 -
25/04:00am 25.2 - - - - ESE 30 32 16 17 1014.7 1014.6 -
25/03:30am 25.3 - - - - ESE 28 32 15 17 1014.6 1014.5 -
25/03:00am 25.2 - - - - ESE 24 28 13 15 1014.7 1014.6 -
25/02:30am 25.4 - - - - ESE 28 32 15 17 1014.9 1014.8 -
25/02:00am 25.4 - - - - ESE 26 32 14 17 1015.1 1015.0 -
25/01:30am 25.3 - - - - ESE 24 28 13 15 1015.3 1015.2 -
25/01:00am 25.4 - - - - ESE 24 28 13 15 1015.6 1015.5 -
25/12:30am 25.5 - - - - ESE 26 30 14 16 1015.8 1015.7 -
25/12:00am 25.4 - - - - ESE 24 30 13 16 1016.0 1015.9 -
 
Date/Time
EST
Temp
°C
App
Temp
°C
Dew
Point
°C
Rel
Hum
%
Delta-T
°C
Wind Press
QNH
hPa
Press
MSL
hPa
Rain since
9am
mm
Dir  Spd
km/h
Gust
km/h
Spd
kts
Gust
kts
24/11:30pm 25.5 - - - - ESE 24 28 13 15 1016.1 1016.0 -
24/11:00pm 25.4 - - - - ESE 24 28 13 15 1016.3 1016.2 -
24/10:30pm 25.5 - - - - ESE 24 28 13 15 1016.6 1016.5 -
24/10:00pm 25.6 - - - - ESE 24 30 13 16 1016.7 1016.6 -
24/09:30pm 25.5 - - - - ESE 24 28 13 15 1016.8 1016.7 -
24/09:00pm 25.5 - - - - ESE 24 28 13 15 1016.7 1016.6 -
24/08:30pm 25.6 - - - - ESE 22 26 12 14 1016.5 1016.4 -
24/08:00pm 25.5 - - - - ESE 24 30 13 16 1016.3 1016.2 -
24/07:30pm 25.6 - - - - ESE 26 32 14 17 1016.0 1015.9 -
24/07:00pm 25.5 - - - - ESE 24 28 13 15 1015.8 1015.7 -
24/06:30pm 25.4 - - - - ESE 26 30 14 16 1015.4 1015.3 -
24/06:00pm 25.3 - - - - ESE 24 28 13 15 1015.1 1015.0 -
24/05:30pm 25.6 - - - - SE 26 30 14 16 1014.9 1014.8 -
24/05:00pm 25.7 - - - - SE 26 30 14 16 1014.8 1014.7 -
24/04:30pm 25.9 - - - - SE 24 28 13 15 1014.5 1014.4 -
24/04:00pm 25.8 - - - - SE 24 28 13 15 1014.4 1014.3 -
24/03:30pm 25.7 - - - - ESE 26 30 14 16 1014.4 1014.3 -
24/03:00pm 25.7 - - - - ESE 26 30 14 16 1014.3 1014.2 -
24/02:30pm 25.8 - - - - ESE 28 32 15 17 1014.6 1014.5 -
24/02:00pm 25.8 - - - - ESE 28 32 15 17 1014.6 1014.5 -
24/01:30pm 25.7 - - - - SE 28 32 15 17 1014.9 1014.8 -
24/01:00pm 25.8 - - - - ESE 30 33 16 18 1015.3 1015.2 -
24/12:30pm 25.7 - - - - ESE 30 33 16 18 1015.9 1015.8 -
24/12:00pm 25.8 - - - - ESE 32 35 17 19 1016.2 1016.1 -
24/11:30am 25.8 - - - - ESE 33 39 18 21 1016.3 1016.2 -
24/11:00am 25.6 - - - - SE 33 35 18 19 1016.5 1016.4 -
24/10:30am 25.8 - - - - ESE 35 39 19 21 1016.7 1016.6 -
24/10:00am 25.7 - - - - SE 37 43 20 23 1016.8 1016.7 -
24/09:30am 25.6 - - - - SE 37 43 20 23 1016.8 1016.7 -
24/09:00am 25.6 - - - - SE 41 46 22 25 1016.6 1016.5 -
24/08:30am 25.9 - - - - SE 37 43 20 23 1016.6 1016.5 -
24/08:00am 25.7 - - - - SE 39 46 21 25 1016.3 1016.2 -
24/07:30am 25.5 - - - - SE 39 44 21 24 1015.9 1015.8 -
24/07:00am 25.3 - - - - SE 39 46 21 25 1015.6 1015.5 -
24/06:30am 25.3 - - - - SE 39 44 21 24 1015.3 1015.2 -
24/06:00am 25.4 - - - - SE 41 46 22 25 1015.2 1015.1 -
24/05:30am 25.4 - - - - SE 39 46 21 25 1015.0 1014.9 -
24/05:00am 25.2 - - - - SE 41 48 22 26 1014.9 1014.8 -
24/04:30am 25.2 - - - - SE 39 46 21 25 1015.0 1014.9 -
24/04:00am 25.2 - - - - SE 41 46 22 25 1014.9 1014.8 -
24/03:30am 25.4 - - - - SE 39 44 21 24 1014.9 1014.8 -
24/03:00am 25.3 - - - - SE 41 46 22 25 1015.0 1014.9 -
24/02:30am 25.4 - - - - SE 41 46 22 25 1015.2 1015.1 -
24/02:00am 25.5 - - - - SE 39 46 21 25 1015.4 1015.3 -
24/01:30am 25.3 - - - - SE 41 46 22 25 1015.9 1015.8 -
24/01:00am 25.5 - - - - SE 39 44 21 24 1016.3 1016.2 -
24/12:30am 25.5 - - - - SE 41 46 22 25 1016.5 1016.4 -
24/12:00am 25.5 - - - - SE 41 46 22 25 1016.7 1016.6 -
 
Date/Time
EST
Temp
°C
App
Temp
°C
Dew
Point
°C
Rel
Hum
%
Delta-T
°C
Wind Press
QNH
hPa
Press
MSL
hPa
Rain since
9am
mm
Dir  Spd
km/h
Gust
km/h
Spd
kts
Gust
kts
23/11:30pm 25.5 - - - - SE 41 46 22 25 1016.9 1016.8 -
23/11:00pm 25.5 - - - - SE 41 46 22 25 1017.0 1016.9 -
23/10:30pm 25.6 - - - - SE 43 48 23 26 1017.2 1017.1 -
23/10:00pm 25.7 - - - - SE 41 46 22 25 1017.3 1017.2 -
23/09:30pm 25.7 - - - - SE 41 46 22 25 1017.4 1017.3 -
23/09:00pm 25.8 - - - - SE 43 50 23 27 1017.5 1017.4 -
23/08:30pm 25.6 - - - - SE 43 50 23 27 1017.2 1017.1 -
23/08:00pm 25.6 - - - - SE 43 50 23 27 1017.0 1016.9 -
23/07:30pm 25.6 - - - - SE 44 50 24 27 1016.7 1016.6 -
23/07:00pm 25.7 - - - - SE 43 50 23 27 1016.4 1016.3 -
23/06:30pm 25.9 - - - - SE 43 50 23 27 1016.1 1016.0 -
23/06:00pm 25.8 - - - - SE 43 48 23 26 1015.9 1015.8 -
23/05:30pm 25.8 - - - - SE 43 46 23 25 1015.7 1015.6 -
23/05:00pm 25.7 - - - - SE 39 46 21 25 1015.6 1015.5 -
23/04:30pm 25.1 - - - - SE 43 46 23 25 1015.7 1015.6 -
23/04:00pm 25.8 - - - - SE 43 46 23 25 1015.5 1015.4 -
23/03:30pm 25.8 - - - - SE 39 46 21 25 1015.4 1015.3 -
23/03:00pm 25.5 - - - - SE 39 44 21 24 1015.4 1015.3 -
23/02:30pm 25.8 - - - - ESE 41 46 22 25 1015.6 1015.5 -
23/02:00pm 25.9 - - - - SE 43 48 23 26 1015.8 1015.7 -
23/01:30pm 25.9 - - - - ESE 43 50 23 27 1016.0 1015.9 -
23/01:00pm 26.0 - - - - SE 46 50 25 27 1016.3 1016.2 -
23/12:30pm 26.0 - - - - SE 44 52 24 28 1016.7 1016.6 -
23/12:00pm 25.7 - - - - ESE 44 52 24 28 1017.0 1016.9 -
23/11:30am 24.7 - - - - ESE 43 52 23 28 1017.5 1017.4 -
23/11:00am 26.1 - - - - ESE 41 46 22 25 1017.8 1017.7 -
23/10:30am 26.2 - - - - ESE 43 50 23 27 1018.0 1017.9 -
23/10:00am 25.7 - - - - ESE 43 48 23 26 1018.1 1018.0 -
23/09:30am 26.2 - - - - ESE 43 46 23 25 1018.0 1017.9 -
23/09:00am 26.1 - - - - ESE 44 52 24 28 1017.8 1017.7 -
23/08:30am 26.1 - - - - ESE 44 52 24 28 1017.4 1017.3 -
23/08:00am 25.8 - - - - ESE 43 50 23 27 1017.1 1017.0 -
23/07:30am 25.9 - - - - ESE 44 52 24 28 1016.8 1016.7 -
23/07:00am 25.5 - - - - ESE 37 46 20 25 1016.7 1016.6 -
23/06:30am 25.5 - - - - ESE 43 48 23 26 1016.3 1016.2 -
23/06:00am 24.6 - - - - ESE 50 56 27 30 1016.1 1016.0 -
23/05:30am 24.8 - - - - ESE 39 46 21 25 1015.7 1015.6 -
23/05:00am 25.5 - - - - ESE 43 50 23 27 1015.4 1015.3 -
23/04:30am 25.4 - - - - ESE 43 48 23 26 1015.3 1015.2 -
23/04:00am 24.9 - - - - ESE 48 59 26 32 1015.4 1015.3 -
23/03:30am 25.5 - - - - ESE 44 50 24 27 1015.3 1015.2 -
23/03:00am 25.5 - - - - ESE 46 54 25 29 1015.3 1015.2 -
23/02:30am 25.5 - - - - ESE 46 54 25 29 1015.6 1015.5 -
23/02:00am 25.2 - - - - ESE 46 54 25 29 1015.7 1015.6 -
23/01:30am 25.8 - - - - ESE 46 54 25 29 1016.0 1015.9 -
23/01:00am 25.2 - - - - ESE 46 52 25 28 1016.3 1016.2 -
23/12:30am 25.4 - - - - ESE 46 57 25 31 1016.6 1016.5 -
23/12:00am 25.7 - - - - ESE 44 50 24 27 1016.8 1016.7 -
 
Date/Time
EST
Temp
°C
App
Temp
°C
Dew
Point
°C
Rel
Hum
%
Delta-T
°C
Wind Press
QNH
hPa
Press
MSL
hPa
Rain since
9am
mm
Dir  Spd
km/h
Gust
km/h
Spd
kts
Gust
kts
22/11:30pm 25.7 - - - - ESE 46 54 25 29 1016.9 1016.8 -

Other formats

Comma delimited format used in spreadsheet applications
http://www.bom.gov.au/fwo/IDQ60801/IDQ60801.94289.axf

JavaScript Object Notation format (JSON) in row-major order
http://www.bom.gov.au/fwo/IDQ60801/IDQ60801.94289.json

Data quality

Most of these data are generated automatically and are frequently updated. Quality checks on data are not normally performed. It is possible for incorrect values to appear. Refer to information at About Latest Weather Observations and please check the disclaimer before using these data.